createdAt,value
2023-02-17T00:12:51.185Z,63.40
2023-02-17T00:15:19.415Z,63.60
2023-02-17T00:17:47.862Z,63.50
2023-02-17T00:20:16.249Z,63.60
2023-02-17T00:22:44.465Z,63.70
2023-02-17T00:25:12.712Z,63.60
2023-02-17T00:27:40.930Z,63.60
2023-02-17T00:30:11.323Z,63.70
2023-02-17T00:32:39.495Z,63.60
2023-02-17T00:35:08.319Z,63.60
2023-02-17T00:37:36.767Z,63.60
2023-02-17T00:40:05.319Z,63.70
2023-02-17T00:42:35.831Z,63.70
2023-02-17T00:45:04.016Z,63.70
2023-02-17T00:47:36.039Z,63.80
2023-02-17T00:50:04.335Z,63.90
2023-02-17T00:52:32.490Z,63.70
2023-02-17T00:55:00.656Z,63.90
2023-02-17T00:57:32.435Z,63.90
2023-02-17T01:00:29.633Z,63.90
2023-02-17T01:02:59.288Z,64.10
2023-02-17T01:05:42.736Z,63.90
2023-02-17T01:08:11.462Z,63.80
2023-02-17T01:10:40.478Z,63.70
2023-02-17T01:13:10.973Z,63.80
2023-02-17T01:15:39.832Z,63.80
2023-02-17T01:18:09.535Z,63.80
2023-02-17T01:20:56.611Z,63.80
2023-02-17T01:23:49.798Z,63.70
2023-02-17T01:26:21.596Z,63.80
2023-02-17T01:28:53.103Z,63.60
2023-02-17T01:31:23.341Z,63.50
2023-02-17T01:33:53.009Z,63.40
2023-02-17T01:36:21.860Z,63.50
2023-02-17T01:38:50.380Z,63.40
2023-02-17T01:41:21.346Z,63.40
2023-02-17T01:44:20.612Z,63.40
2023-02-17T01:46:50.455Z,63.30
2023-02-17T01:49:29.749Z,63.00
2023-02-17T01:52:06.875Z,63.00
2023-02-17T01:54:40.710Z,63.10
2023-02-17T01:57:12.327Z,63.10
2023-02-17T01:59:42.915Z,63.10
2023-02-17T02:02:11.411Z,63.10
2023-02-17T02:04:48.177Z,63.20
2023-02-17T02:07:21.636Z,63.20
2023-02-17T02:09:54.866Z,63.30
2023-02-17T02:12:25.453Z,63.50
2023-02-17T02:14:56.259Z,63.60
2023-02-17T02:17:36.782Z,63.80
2023-02-17T02:20:38.436Z,63.80
2023-02-17T02:23:39.303Z,63.90
2023-02-17T02:26:40.841Z,63.80
2023-02-17T02:29:31.451Z,63.90
2023-02-17T02:32:19.486Z,63.80
2023-02-17T02:34:56.081Z,63.80
2023-02-17T02:37:29.991Z,63.90
2023-02-17T02:40:02.380Z,63.90
2023-02-17T02:42:31.640Z,63.80
2023-02-17T02:44:59.887Z,63.60
2023-02-17T02:47:44.943Z,63.40
2023-02-17T02:50:18.285Z,63.20
2023-02-17T02:53:09.352Z,63.20
2023-02-17T02:55:50.067Z,63.30
2023-02-17T02:58:24.418Z,63.60
2023-02-17T03:01:03.534Z,64.00
2023-02-17T03:03:43.087Z,64.20
2023-02-17T03:21:54.827Z,64.70
2023-02-17T03:24:23.164Z,64.70
2023-02-17T03:26:51.817Z,64.90
2023-02-17T03:29:20.112Z,64.90
2023-02-17T03:31:48.599Z,65.00
2023-02-17T03:34:16.803Z,64.90
2023-02-17T03:36:45.002Z,64.90
2023-02-17T03:39:14.528Z,64.90
2023-02-17T03:41:42.739Z,65.00
2023-02-17T03:44:13.280Z,65.00
2023-02-17T03:46:41.715Z,65.10
2023-02-17T03:49:11.623Z,64.90
2023-02-17T03:51:41.347Z,65.00
2023-02-17T03:54:09.475Z,65.10
2023-02-17T03:56:41.183Z,65.10
2023-02-17T03:59:10.562Z,65.10
2023-02-17T04:01:41.394Z,65.30
2023-02-17T04:04:09.718Z,65.10
2023-02-17T04:06:38.316Z,65.30
2023-02-17T04:09:06.642Z,65.50
2023-02-17T04:11:34.816Z,65.60
2023-02-17T04:14:06.546Z,65.60
2023-02-17T04:16:34.880Z,66.60
2023-02-17T04:19:03.134Z,65.90
2023-02-17T04:21:31.335Z,66.10
2023-02-17T04:24:01.686Z,66.30
2023-02-17T04:26:30.523Z,66.60
2023-02-17T04:29:00.911Z,66.90
2023-02-17T04:31:30.596Z,67.10
2023-02-17T04:33:58.835Z,67.30
2023-02-17T04:36:27.037Z,67.60
2023-02-17T04:38:55.182Z,68.00
2023-02-17T04:41:23.416Z,68.10
2023-02-17T04:43:53.974Z,68.40
2023-02-17T04:46:22.187Z,68.40
2023-02-17T04:48:51.768Z,68.50
2023-02-17T04:51:19.853Z,68.50
2023-02-17T04:53:48.037Z,68.70
2023-02-17T04:56:16.772Z,69.60
2023-02-17T04:58:44.958Z,68.90
2023-02-17T05:01:13.206Z,69.20
2023-02-17T05:03:42.146Z,69.10
2023-02-17T05:06:11.763Z,69.20
2023-02-17T05:08:39.926Z,69.30
2023-02-17T05:11:08.091Z,69.30
2023-02-17T05:13:36.256Z,69.50
2023-02-17T05:16:06.998Z,69.50
2023-02-17T05:18:37.551Z,69.50
2023-02-17T05:21:06.109Z,69.60
2023-02-17T05:23:41.061Z,69.60
2023-02-17T05:26:09.774Z,70.00
2023-02-17T05:28:38.456Z,69.90
2023-02-17T05:31:06.948Z,69.90
2023-02-17T05:33:35.322Z,70.10
2023-02-17T05:36:04.844Z,70.20
2023-02-17T05:38:33.510Z,70.20
2023-02-17T05:41:03.122Z,70.30
2023-02-17T05:43:33.711Z,70.40
2023-02-17T05:50:11.540Z,70.70
2023-02-17T05:52:40.236Z,70.50
2023-02-17T05:55:18.983Z,70.70
2023-02-17T05:57:48.887Z,70.70
2023-02-17T06:00:17.955Z,70.90
2023-02-17T06:02:46.144Z,70.70
2023-02-17T06:05:16.565Z,70.90
2023-02-17T06:07:44.762Z,71.00
2023-02-17T06:10:13.496Z,71.20
2023-02-17T06:12:41.958Z,71.10
2023-02-17T06:15:11.717Z,71.20
2023-02-17T06:17:40.108Z,71.20
2023-02-17T06:20:12.112Z,71.20
2023-02-17T06:22:40.800Z,71.20
2023-02-17T06:25:09.416Z,71.30
2023-02-17T06:27:37.723Z,71.30
2023-02-17T06:30:07.141Z,71.60
2023-02-17T06:32:36.859Z,71.50
2023-02-17T06:35:05.062Z,71.50
2023-02-17T06:37:33.189Z,71.50
2023-02-17T06:40:01.353Z,71.40
2023-02-17T06:42:32.070Z,71.40
2023-02-17T06:45:00.827Z,71.40
2023-02-17T06:47:28.987Z,71.40
2023-02-17T06:49:58.587Z,71.40
2023-02-17T06:52:26.814Z,71.30
2023-02-17T06:54:55.062Z,71.20
2023-02-17T06:57:23.234Z,71.40
2023-02-17T06:59:51.446Z,71.30
2023-02-17T07:02:19.711Z,71.30
2023-02-17T07:04:47.931Z,71.30
2023-02-17T07:07:17.608Z,71.20
2023-02-17T07:09:45.840Z,71.90
2023-02-17T07:12:13.960Z,71.10
2023-02-17T07:14:44.262Z,71.30
2023-02-17T07:17:12.455Z,71.30
2023-02-17T07:19:40.604Z,71.30
2023-02-17T07:22:10.985Z,71.20
2023-02-17T07:24:40.553Z,71.20
2023-02-17T07:27:10.703Z,71.10
2023-02-17T07:29:39.454Z,71.30
2023-02-17T07:32:07.808Z,71.20
2023-02-17T07:34:36.076Z,71.20
2023-02-17T07:37:04.320Z,71.20
2023-02-17T07:39:32.736Z,71.20
2023-02-17T07:42:05.102Z,71.30
2023-02-17T07:44:36.679Z,71.60
2023-02-17T07:47:07.992Z,71.50
2023-02-17T07:49:36.585Z,71.70
2023-02-17T07:52:05.614Z,71.50
2023-02-17T07:54:36.258Z,71.40
2023-02-17T08:04:55.694Z,71.50
2023-02-17T10:32:17.268Z,68.30
2023-02-17T10:36:59.051Z,68.90
2023-02-17T11:01:03.426Z,68.00
2023-02-17T11:32:31.746Z,68.10
2023-02-17T12:28:28.588Z,69.80
2023-02-17T12:31:06.986Z,70.30
2023-02-17T12:55:07.436Z,69.80
2023-02-17T12:57:51.232Z,69.80
2023-02-17T13:10:16.815Z,69.70
2023-02-17T13:13:13.373Z,69.90
2023-02-17T13:19:52.187Z,69.60
2023-02-17T14:06:14.999Z,68.80
2023-02-17T17:31:54.206Z,70.60
2023-02-17T17:34:45.729Z,70.50
2023-02-17T17:37:42.356Z,70.70
2023-02-17T17:40:33.690Z,71.10
2023-02-17T17:43:58.130Z,70.30
2023-02-17T17:50:56.609Z,70.70
2023-02-17T17:57:04.461Z,70.10
2023-02-17T17:59:57.656Z,70.50
2023-02-17T18:05:59.698Z,70.40
2023-02-17T18:18:28.038Z,71.20
2023-02-17T18:28:43.363Z,74.30
2023-02-17T18:42:57.846Z,77.10
2023-02-17T18:45:34.354Z,78.10
2023-02-17T18:48:33.186Z,78.60
2023-02-17T18:51:49.821Z,79.30
2023-02-17T19:05:06.859Z,81.30
2023-02-17T19:07:54.706Z,81.60
2023-02-17T19:11:18.138Z,82.10
2023-02-17T19:13:55.423Z,82.40
2023-02-17T19:16:41.761Z,82.30
2023-02-17T19:19:34.110Z,82.50
2023-02-17T19:26:26.122Z,82.70
2023-02-17T19:29:35.716Z,82.80
2023-02-17T19:32:12.975Z,83.10
2023-02-17T19:34:45.918Z,83.10
2023-02-17T19:41:56.468Z,82.80
2023-02-17T21:23:20.453Z,78.90
2023-02-17T21:26:22.562Z,78.80
2023-02-17T21:49:02.223Z,78.20
2023-02-17T21:54:53.774Z,77.80
2023-02-17T21:57:27.298Z,77.50
2023-02-17T22:00:12.767Z,77.40
2023-02-17T22:02:47.528Z,77.20
2023-02-17T22:05:27.944Z,77.00
2023-02-17T22:19:37.511Z,77.10
2023-02-17T22:22:06.409Z,77.50
2023-02-17T22:27:44.289Z,78.50
2023-02-17T22:30:16.308Z,78.10
2023-02-17T22:32:53.166Z,78.40
2023-02-17T22:35:22.180Z,78.30
2023-02-17T22:38:00.551Z,78.40
2023-02-17T22:40:36.572Z,78.00
2023-02-17T22:43:08.847Z,77.80
2023-02-17T22:45:41.183Z,77.80
2023-02-17T22:52:00.250Z,77.50
2023-02-17T22:54:33.641Z,77.70
2023-02-17T22:57:18.471Z,77.60
2023-02-17T23:18:24.633Z,77.50
2023-02-17T23:20:56.613Z,77.40
2023-02-17T23:23:30.576Z,77.60
2023-02-17T23:28:48.897Z,77.50
2023-02-17T23:31:17.627Z,77.40
2023-02-17T23:45:11.038Z,76.30
2023-02-17T23:47:50.577Z,75.90
2023-02-17T23:50:22.122Z,76.20
2023-02-17T23:52:51.901Z,75.80
2023-02-17T23:55:23.190Z,76.00
2023-02-17T23:57:52.654Z,75.90
